Time;durP1;ratioP1;P1;durP2;ratioP2;P2;SDS_P1;SDS_P2;PMS_P1;PMS_P2;Temp;Humidity;BMP_temperature;BMP_pressure;BME280_temperature;BME280_humidity;BME280_pressure;Samples;Min_cycle;Max_cycle;Signal;HPM_P1;HPM_P2
2021/07/08 00:01:55;;;;;;;20.90;10.75;;;14.40;99.90;;;;;;4972626;28;20423;-90
2021/07/08 00:04:21;;;;;;;19.40;11.30;;;14.40;99.90;;;;;;4973027;28;20059;-89
2021/07/08 00:06:47;;;;;;;310.23;16.63;;;14.40;99.90;;;;;;4972948;28;20058;-91
2021/07/08 00:09:13;;;;;;;17.85;6.78;;;14.40;99.90;;;;;;4973658;28;20057;-89
2021/07/08 00:11:40;;;;;;;10.55;5.70;;;14.30;99.90;;;;;;4974792;28;20390;-90
2021/07/08 00:14:07;;;;;;;9.48;7.65;;;14.20;99.90;;;;;;4987528;28;20042;-89
2021/07/08 00:16:35;;;;;;;18.33;7.85;;;14.20;99.90;;;;;;4975063;28;20491;-88
2021/07/08 00:19:01;;;;;;;12.88;7.32;;;14.10;99.90;;;;;;4975016;28;20106;-88
2021/07/08 00:21:27;;;;;;;12.27;6.70;;;14.10;99.90;;;;;;4957256;28;20102;-89
2021/07/08 00:23:53;;;;;;;12.05;8.27;;;14.00;99.90;;;;;;4967586;28;20042;-90
2021/07/08 00:26:19;;;;;;;10.43;7.57;;;14.00;99.90;;;;;;4976591;28;20046;-90
2021/07/08 00:28:45;;;;;;;13.13;7.70;;;14.00;99.90;;;;;;4974876;28;20133;-90
2021/07/08 00:31:11;;;;;;;9.82;7.40;;;14.00;99.90;;;;;;4973611;28;20556;-91
2021/07/08 00:33:38;;;;;;;12.40;6.28;;;13.90;99.90;;;;;;4957358;28;20050;-90
2021/07/08 00:36:04;;;;;;;12.73;7.82;;;13.90;99.90;;;;;;4973916;28;20122;-88
2021/07/08 00:38:31;;;;;;;11.60;7.28;;;13.90;99.90;;;;;;4973019;28;20206;-89
2021/07/08 00:40:57;;;;;;;18.52;8.63;;;13.80;99.90;;;;;;4973529;28;20050;-89
2021/07/08 00:43:28;;;;;;;12.25;9.63;;;13.80;99.90;;;;;;4955155;28;20066;-89
2021/07/08 00:45:54;;;;;;;17.38;9.10;;;13.80;99.90;;;;;;4973369;28;20565;-89
2021/07/08 00:48:20;;;;;;;15.10;8.35;;;13.70;99.90;;;;;;4971180;28;20054;-90
2021/07/08 00:50:46;;;;;;;21.20;9.45;;;13.70;99.90;;;;;;4971714;28;20030;-89
2021/07/08 00:53:14;;;;;;;15.20;9.27;;;13.70;99.90;;;;;;4955636;28;20469;-89
2021/07/08 00:55:44;;;;;;;16.95;10.13;;;13.60;99.90;;;;;;4972901;28;20395;-91
2021/07/08 00:58:11;;;;;;;;;;;13.60;99.90;;;;;;4975146;28;20046;-91
2021/07/08 01:00:38;;;;;;;21.23;11.32;;;13.60;99.90;;;;;;4972634;28;19922;-91
2021/07/08 01:03:08;;;;;;;14.07;9.35;;;13.60;99.90;;;;;;4988853;28;20134;-91
2021/07/08 01:05:42;;;;;;;16.48;7.68;;;13.60;99.90;;;;;;4941351;28;20427;-91
2021/07/08 01:08:10;;;;;;;11.77;7.93;;;13.50;99.90;;;;;;4974295;28;20042;-90
2021/07/08 01:10:37;;;;;;;15.48;7.53;;;13.50;99.90;;;;;;4973085;28;20043;-91
2021/07/08 01:13:03;;;;;;;19.10;8.52;;;13.50;99.90;;;;;;4972857;28;20744;-89
2021/07/08 01:15:30;;;;;;;25.70;7.50;;;13.40;99.90;;;;;;4956225;28;20045;-89
2021/07/08 01:17:56;;;;;;;24.17;8.10;;;13.30;99.90;;;;;;4973328;28;20042;-89
2021/07/08 01:20:27;;;;;;;36.53;6.47;;;13.30;99.90;;;;;;4955919;28;20499;-89
2021/07/08 01:22:59;;;;;;;22.27;6.50;;;13.30;99.90;;;;;;4972102;28;20074;-89
2021/07/08 01:25:36;;;;;;;21.25;6.78;;;13.30;99.90;;;;;;4971449;28;20495;-89
2021/07/08 01:28:04;;;;;;;28.30;7.38;;;13.30;99.90;;;;;;4972526;28;20471;-89
2021/07/08 01:30:30;;;;;;;29.98;9.43;;;13.20;99.90;;;;;;4971642;28;20063;-88
2021/07/08 01:32:57;;;;;;;14.15;10.60;;;13.20;99.90;;;;;;4971726;28;20043;-89
2021/07/08 01:35:23;;;;;;;20.20;11.45;;;13.20;99.90;;;;;;4955563;28;20050;-88
2021/07/08 01:37:49;;;;;;;19.50;11.32;;;13.30;99.90;;;;;;4973222;28;20105;-88
2021/07/08 01:40:16;;;;;;;16.95;11.27;;;13.20;99.90;;;;;;4971912;28;20051;-91
2021/07/08 01:42:43;;;;;;;18.50;11.95;;;13.30;99.90;;;;;;4972996;28;20054;-88
2021/07/08 01:45:15;;;;;;;17.88;12.63;;;13.30;99.90;;;;;;4972106;28;20042;-88
2021/07/08 01:47:43;;;;;;;19.38;12.32;;;13.40;99.90;;;;;;4954561;28;20106;-89
2021/07/08 01:50:16;;;;;;;16.60;11.63;;;13.30;99.90;;;;;;4972858;28;20105;-89
2021/07/08 01:52:42;;;;;;;26.70;12.98;;;13.40;99.90;;;;;;4972192;28;20051;-90
2021/07/08 01:55:08;;;;;;;16.42;11.45;;;13.40;99.90;;;;;;4991857;28;20038;-90
2021/07/08 01:57:34;;;;;;;19.75;12.02;;;13.50;99.90;;;;;;4978259;28;20047;-89
2021/07/08 02:00:00;;;;;;;23.80;9.82;;;13.40;99.90;;;;;;4987068;28;20043;-90
2021/07/08 02:02:27;;;;;;;22.65;9.75;;;13.40;99.90;;;;;;4972853;28;20150;-91
2021/07/08 02:04:52;;;;;;;16.17;8.50;;;13.40;99.90;;;;;;4985901;28;20125;-91
2021/07/08 02:07:18;;;;;;;26.70;9.50;;;13.40;99.90;;;;;;4958351;28;20736;-92
2021/07/08 02:09:44;;;;;;;36.30;8.95;;;13.40;99.90;;;;;;4920989;29;20047;-90
2021/07/08 02:12:10;;;;;;;19.20;10.40;;;13.40;99.90;;;;;;4967524;28;20034;-89
2021/07/08 02:14:36;;;;;;;24.40;13.48;;;13.40;99.90;;;;;;4969470;28;20038;-89
2021/07/08 02:17:02;;;;;;;30.83;18.00;;;13.40;99.90;;;;;;4940157;28;20415;-91
2021/07/08 02:19:28;;;;;;;27.70;15.18;;;13.40;99.90;;;;;;4971474;28;20042;-91
2021/07/08 02:21:54;;;;;;;33.20;14.70;;;13.50;99.90;;;;;;4939715;28;20042;-90
2021/07/08 02:24:20;;;;;;;19.10;10.15;;;13.40;99.90;;;;;;4967301;28;20046;-90
2021/07/08 02:26:46;;;;;;;27.10;14.38;;;13.40;99.90;;;;;;4960179;28;20049;-89
2021/07/08 02:29:12;;;;;;;25.67;14.95;;;13.40;99.90;;;;;;4969316;28;20059;-89
2021/07/08 02:31:38;;;;;;;19.02;12.52;;;13.40;99.90;;;;;;4971146;28;20167;-89
2021/07/08 02:34:04;;;;;;;39.88;14.25;;;13.40;99.90;;;;;;4971073;28;20121;-90
2021/07/08 02:36:30;;;;;;;18.80;13.05;;;13.40;99.90;;;;;;4970612;28;20046;-89
2021/07/08 02:39:01;;;;;;;18.17;12.50;;;13.40;99.90;;;;;;4972112;28;20047;-88
2021/07/08 02:41:27;;;;;;;23.75;15.07;;;13.40;99.90;;;;;;4971735;28;20223;-90
2021/07/08 02:43:52;;;;;;;20.67;15.05;;;13.40;99.90;;;;;;4970606;28;20039;-88
2021/07/08 02:46:18;;;;;;;28.23;16.90;;;13.40;99.90;;;;;;4970875;28;20051;-89
2021/07/08 02:48:44;;;;;;;26.00;15.60;;;13.40;99.90;;;;;;4970485;28;20506;-89
2021/07/08 02:51:10;;;;;;;22.40;17.25;;;13.40;99.90;;;;;;4971485;28;20399;-89
2021/07/08 02:53:35;;;;;;;22.45;12.90;;;13.50;99.90;;;;;;4954493;28;20415;-90
2021/07/08 02:56:01;;;;;;;28.83;17.50;;;13.50;99.90;;;;;;4971399;28;20042;-89
2021/07/08 02:58:27;;;;;;;25.92;16.35;;;13.50;99.90;;;;;;4970479;28;20498;-89
2021/07/08 03:00:53;;;;;;;25.65;13.82;;;13.40;99.90;;;;;;4971118;28;20773;-88
2021/07/08 03:03:19;;;;;;;19.35;13.27;;;13.40;99.90;;;;;;4970885;28;20471;-89
2021/07/08 03:05:45;;;;;;;27.67;14.52;;;13.40;99.90;;;;;;4954885;28;20074;-89
2021/07/08 03:08:11;;;;;;;33.55;15.07;;;13.30;99.90;;;;;;4954966;28;20042;-89
2021/07/08 03:10:38;;;;;;;26.10;14.35;;;13.30;99.90;;;;;;4971382;28;20047;-88
2021/07/08 03:13:04;;;;;;;20.65;14.10;;;13.20;99.90;;;;;;4972317;28;20042;-90
2021/07/08 03:15:30;;;;;;;18.90;11.98;;;13.20;99.90;;;;;;4971078;28;20539;-89
2021/07/08 03:17:57;;;;;;;16.42;12.57;;;13.20;99.90;;;;;;4954845;28;20054;-89
2021/07/08 03:20:29;;;;;;;21.00;12.68;;;13.10;99.90;;;;;;4955169;28;20502;-93
2021/07/08 03:22:55;;;;;;;16.50;11.70;;;13.10;99.90;;;;;;4972323;28;20043;-89
2021/07/08 03:25:22;;;;;;;21.30;13.73;;;13.10;99.90;;;;;;4972071;28;20039;-89
2021/07/08 03:27:48;;;;;;;26.33;14.77;;;13.10;99.90;;;;;;4972925;28;20079;-90
2021/07/08 03:30:19;;;;;;;23.20;13.35;;;13.00;99.90;;;;;;4972128;28;20093;-88
2021/07/08 03:32:46;;;;;;;27.27;17.08;;;13.00;99.90;;;;;;4971483;28;20047;-90
2021/07/08 03:35:12;;;;;;;34.67;19.73;;;13.00;99.90;;;;;;4981253;28;20053;-90
2021/07/08 03:37:38;;;;;;;33.10;19.33;;;13.00;99.90;;;;;;4979807;28;20050;-89
2021/07/08 03:40:06;;;;;;;39.00;23.55;;;13.00;99.90;;;;;;4974368;28;20039;-89
2021/07/08 03:42:31;;;;;;;41.22;23.15;;;13.00;99.90;;;;;;4958047;28;20094;-89
2021/07/08 03:44:57;;;;;;;39.88;21.90;;;13.10;99.90;;;;;;4986287;28;20280;-89
2021/07/08 03:47:23;;;;;;;28.48;16.77;;;13.10;99.90;;;;;;4958204;28;20061;-90
2021/07/08 03:49:49;;;;;;;30.20;19.23;;;13.10;99.90;;;;;;4957125;28;20538;-88
2021/07/08 03:52:14;;;;;;;32.95;18.65;;;13.10;99.90;;;;;;4974146;28;20043;-89
2021/07/08 03:54:40;;;;;;;33.42;18.45;;;13.10;99.90;;;;;;4971799;28;20402;-90
2021/07/08 03:57:06;;;;;;;32.05;18.02;;;13.00;99.90;;;;;;4960370;28;20097;-89
2021/07/08 03:59:32;;;;;;;33.72;19.45;;;13.00;99.90;;;;;;4956957;28;20057;-90
2021/07/08 04:01:58;;;;;;;28.65;17.75;;;13.00;99.90;;;;;;4973561;28;20051;-89
2021/07/08 04:04:24;;;;;;;28.98;17.25;;;13.00;99.90;;;;;;4973341;28;20126;-88
2021/07/08 04:06:50;;;;;;;30.23;17.05;;;13.00;99.90;;;;;;4972879;28;20474;-89
2021/07/08 04:09:16;;;;;;;21.52;15.52;;;13.00;99.90;;;;;;4941871;28;20039;-89
2021/07/08 04:11:42;;;;;;;25.35;17.23;;;13.00;99.90;;;;;;4957250;28;20069;-90
2021/07/08 04:14:08;;;;;;;24.48;16.23;;;13.00;99.90;;;;;;4957306;28;20130;-90
2021/07/08 04:16:36;;;;;;;30.40;19.60;;;13.10;99.90;;;;;;4957719;28;20046;-91
2021/07/08 04:19:03;;;;;;;24.50;14.80;;;13.10;99.90;;;;;;4974864;28;20039;-89
2021/07/08 04:21:29;;;;;;;26.15;18.30;;;13.10;99.90;;;;;;4974539;28;20051;-92
2021/07/08 04:23:55;;;;;;;37.50;21.17;;;13.20;99.90;;;;;;4957400;28;20141;-90
2021/07/08 04:26:21;;;;;;;40.22;21.65;;;13.20;99.90;;;;;;4957678;28;20118;-89
2021/07/08 04:28:47;;;;;;;20.95;10.07;;;13.20;99.90;;;;;;4973326;28;20071;-88
2021/07/08 04:31:16;;;;;;;24.30;11.25;;;13.20;99.90;;;;;;4973677;28;20050;-91
2021/07/08 04:33:44;;;;;;;27.77;11.20;;;13.20;99.90;;;;;;4973042;28;20062;-91
2021/07/08 04:36:12;;;;;;;17.25;9.27;;;13.20;99.90;;;;;;4974843;28;20570;-92
2021/07/08 04:38:43;;;;;;;27.05;9.65;;;13.20;99.90;;;;;;4956745;28;20470;-91
2021/07/08 04:41:29;;;;;;;13.65;9.05;;;13.20;99.90;;;;;;4946115;28;20051;-93
2021/07/08 04:43:55;;;;;;;23.30;17.00;;;13.20;99.90;;;;;;4972602;28;20109;-91
2021/07/08 04:46:25;;;;;;;17.50;11.43;;;13.20;99.90;;;;;;4972565;28;20558;-91
2021/07/08 04:48:56;;;;;;;26.42;17.10;;;13.20;99.90;;;;;;4957902;28;20070;-90
2021/07/08 04:51:22;;;;;;;31.52;17.15;;;13.40;99.90;;;;;;4957473;28;20050;-90
2021/07/08 04:53:49;;;;;;;35.60;17.40;;;13.50;99.90;;;;;;4968388;28;20499;-90
2021/07/08 04:56:15;;;;;;;30.55;18.88;;;13.60;99.90;;;;;;4973318;28;20117;-90
2021/07/08 04:58:40;;;;;;;33.20;20.38;;;13.60;99.90;;;;;;4942527;28;20475;-89
2021/07/08 05:01:06;;;;;;;33.17;19.13;;;13.70;99.90;;;;;;4956697;28;20102;-91
2021/07/08 05:03:32;;;;;;;37.33;21.75;;;13.80;99.90;;;;;;4956866;28;20086;-91
2021/07/08 05:05:59;;;;;;;29.92;20.15;;;13.80;99.90;;;;;;4974360;28;20129;-92
2021/07/08 05:08:25;;;;;;;38.25;21.05;;;13.90;99.90;;;;;;4982752;28;20043;-92
2021/07/08 05:10:51;;;;;;;39.40;23.70;;;13.90;99.90;;;;;;4956605;28;20479;-92
2021/07/08 05:13:17;;;;;;;44.70;25.02;;;14.00;99.90;;;;;;4973011;28;20051;-92
2021/07/08 05:15:43;;;;;;;38.83;23.80;;;14.10;99.90;;;;;;4973146;28;20039;-91
2021/07/08 05:18:09;;;;;;;48.05;24.77;;;14.20;99.90;;;;;;4960961;28;20117;-91
2021/07/08 05:20:37;;;;;;;36.35;22.92;;;14.30;99.90;;;;;;4969340;28;20054;-92
2021/07/08 05:23:07;;;;;;;36.67;22.83;;;14.40;99.90;;;;;;4972091;28;20126;-90
2021/07/08 05:25:33;;;;;;;37.28;23.90;;;14.40;99.90;;;;;;4972325;28;20038;-91
2021/07/08 05:27:58;;;;;;;45.95;25.48;;;14.60;99.90;;;;;;4971807;28;20628;-90
2021/07/08 05:30:24;;;;;;;38.08;23.92;;;14.60;99.90;;;;;;4972486;28;20047;-89
2021/07/08 05:32:50;;;;;;;44.03;25.08;;;14.80;99.90;;;;;;4973370;28;20057;-90
2021/07/08 05:35:16;;;;;;;36.85;23.95;;;14.90;99.90;;;;;;4973746;28;20043;-90
2021/07/08 05:37:43;;;;;;;41.00;23.40;;;14.90;99.90;;;;;;4939845;28;20047;-90
2021/07/08 05:40:09;;;;;;;33.47;21.13;;;15.00;99.90;;;;;;4972997;28;20129;-88
2021/07/08 05:42:36;;;;;;;31.10;21.17;;;15.10;99.90;;;;;;4956132;28;20047;-91
2021/07/08 05:45:03;;;;;;;29.20;19.10;;;15.20;99.90;;;;;;4973139;28;20050;-90
2021/07/08 05:47:29;;;;;;;32.47;20.10;;;15.30;99.90;;;;;;4973009;28;20062;-90
2021/07/08 05:49:56;;;;;;;30.55;19.27;;;15.40;99.90;;;;;;4972444;28;20081;-87
2021/07/08 05:52:21;;;;;;;33.95;19.45;;;15.50;99.90;;;;;;4966044;28;20053;-89
2021/07/08 05:54:47;;;;;;;23.83;16.33;;;15.60;99.90;;;;;;4949484;28;20043;-91
2021/07/08 05:57:13;;;;;;;28.25;16.73;;;15.70;99.90;;;;;;4971317;28;20086;-89
2021/07/08 05:59:39;;;;;;;28.60;18.55;;;15.80;99.90;;;;;;4943512;28;20491;-92
2021/07/08 06:02:05;;;;;;;40.47;19.33;;;15.90;99.90;;;;;;4962652;28;20070;-89
2021/07/08 06:04:30;;;;;;;35.72;18.27;;;16.00;99.90;;;;;;4960052;28;20066;-90
2021/07/08 06:06:57;;;;;;;24.80;19.02;;;16.10;99.90;;;;;;4938473;28;20126;-90
2021/07/08 06:09:23;;;;;;;25.67;18.30;;;16.20;99.90;;;;;;4947677;28;20530;-90
2021/07/08 06:11:50;;;;;;;25.52;17.83;;;16.20;99.90;;;;;;4939326;28;20074;-91
2021/07/08 06:14:16;;;;;;;36.97;18.42;;;16.30;99.90;;;;;;4990448;28;20034;-92
2021/07/08 06:16:42;;;;;;;20.63;16.08;;;16.40;99.90;;;;;;4949338;28;20053;-90
2021/07/08 06:19:07;;;;;;;40.25;16.90;;;16.40;99.90;;;;;;4956586;28;20047;-90
2021/07/08 06:21:33;;;;;;;29.63;16.83;;;16.50;99.90;;;;;;4985288;28;20126;-90
2021/07/08 06:23:59;;;;;;;19.40;16.80;;;16.60;99.90;;;;;;4954304;28;20628;-90
2021/07/08 06:26:25;;;;;;;25.02;17.25;;;16.60;99.90;;;;;;4954120;28;20509;-91
2021/07/08 06:28:50;;;;;;;24.85;15.88;;;16.70;99.90;;;;;;4969500;28;20069;-90
2021/07/08 06:31:16;;;;;;;22.10;15.48;;;16.70;99.90;;;;;;4954166;28;20490;-89
2021/07/08 06:33:44;;;;;;;22.23;16.33;;;16.80;99.90;;;;;;4953568;28;20487;-89
2021/07/08 06:36:10;;;;;;;32.95;17.27;;;16.90;99.90;;;;;;4938352;28;20061;-90
2021/07/08 06:38:36;;;;;;;26.92;14.00;;;16.90;99.90;;;;;;4970499;28;20074;-90
2021/07/08 06:41:02;;;;;;;21.52;14.82;;;16.90;99.90;;;;;;4970766;28;20074;-91
2021/07/08 06:43:27;;;;;;;19.85;12.32;;;17.10;99.90;;;;;;4954174;28;20576;-91
2021/07/08 06:45:53;;;;;;;20.65;11.80;;;17.10;99.90;;;;;;4970756;28;20050;-90
2021/07/08 06:48:19;;;;;;;16.50;11.77;;;17.10;99.90;;;;;;4938197;28;20053;-90
2021/07/08 06:50:45;;;;;;;25.08;14.55;;;17.20;99.90;;;;;;4986030;28;20433;-91
2021/07/08 06:53:10;;;;;;;64.47;13.32;;;17.30;99.90;;;;;;4954233;28;20081;-91
2021/07/08 06:55:37;;;;;;;18.08;11.85;;;17.30;99.90;;;;;;4954185;28;20047;-92
2021/07/08 06:58:04;;;;;;;21.42;12.32;;;17.20;99.90;;;;;;4953379;28;20041;-94
2021/07/08 07:00:36;;;;;;;26.45;12.60;;;17.20;99.90;;;;;;4976032;28;20478;-93
2021/07/08 07:03:03;;;;;;;24.20;12.68;;;17.20;99.90;;;;;;4972713;28;20051;-93
2021/07/08 07:05:29;;;;;;;13.95;12.35;;;17.20;99.90;;;;;;4971169;28;20039;-92
2021/07/08 07:07:57;;;;;;;19.15;14.50;;;17.30;99.90;;;;;;4955496;28;20062;-90
2021/07/08 07:10:24;;;;;;;26.05;14.60;;;17.20;99.90;;;;;;4973804;28;20405;-90
2021/07/08 07:12:52;;;;;;;24.23;15.13;;;17.30;99.90;;;;;;4973339;28;20038;-88
2021/07/08 07:15:20;;;;;;;20.70;15.48;;;17.40;99.90;;;;;;4975149;28;20453;-92
2021/07/08 07:17:49;;;;;;;23.73;15.43;;;17.50;99.90;;;;;;4974118;28;20039;-91
2021/07/08 07:20:17;;;;;;;22.10;15.30;;;17.60;99.90;;;;;;4974491;28;20047;-88
2021/07/08 07:22:45;;;;;;;21.98;15.32;;;17.70;99.90;;;;;;4963734;28;20498;-90
2021/07/08 07:25:13;;;;;;;25.17;15.40;;;17.70;99.90;;;;;;4981744;28;20062;-89
2021/07/08 07:27:40;;;;;;;19.92;13.48;;;17.80;99.90;;;;;;4979154;28;20884;-88
2021/07/08 07:30:06;;;;;;;27.77;12.75;;;17.90;99.90;;;;;;4983764;28;20035;-89
2021/07/08 07:32:33;;;;;;;18.30;12.70;;;18.00;99.90;;;;;;4990102;28;20109;-88
2021/07/08 07:34:59;;;;;;;23.00;12.75;;;18.10;99.90;;;;;;4973863;28;20047;-89
2021/07/08 07:37:26;;;;;;;18.90;11.95;;;18.20;99.90;;;;;;4974127;28;20121;-89
2021/07/08 07:39:52;;;;;;;49.78;12.60;;;18.30;99.90;;;;;;4979420;28;20046;-90
2021/07/08 07:42:19;;;;;;;14.48;10.77;;;18.40;99.90;;;;;;4977683;28;20100;-89
2021/07/08 07:44:47;;;;;;;18.85;11.48;;;18.50;99.90;;;;;;4976232;28;20045;-89
2021/07/08 07:47:13;;;;;;;15.73;10.70;;;18.70;99.90;;;;;;4974742;28;20050;-88
2021/07/08 07:49:39;;;;;;;21.17;11.57;;;18.80;99.90;;;;;;4976782;28;20038;-90
2021/07/08 07:52:06;;;;;;;18.92;11.05;;;19.00;99.90;;;;;;4972881;28;20062;-90
2021/07/08 07:54:35;;;;;;;19.15;11.77;;;19.10;99.90;;;;;;4983879;28;20047;-90
2021/07/08 07:57:04;;;;;;;15.85;11.38;;;19.20;99.90;;;;;;4972443;28;20049;-90
2021/07/08 07:59:34;;;;;;;19.53;11.47;;;19.20;99.90;;;;;;4957008;28;20054;-90
2021/07/08 08:02:01;;;;;;;23.02;12.88;;;19.30;99.90;;;;;;4955463;28;20299;-91
2021/07/08 08:04:32;;;;;;;17.25;13.18;;;19.20;99.90;;;;;;4975856;28;20046;-90
2021/07/08 08:09:47;;;;;;;;;;;19.10;99.90;;;;;;4949014;28;20077;-89
2021/07/08 08:12:13;;;;;;;12.30;11.10;;;19.10;99.90;;;;;;4959343;28;19922;-87
2021/07/08 08:14:39;;;;;;;15.50;12.43;;;19.00;99.90;;;;;;4975570;28;20463;-89
2021/07/08 08:17:05;;;;;;;17.30;12.38;;;19.10;99.90;;;;;;4975848;28;20133;-87
2021/07/08 08:19:31;;;;;;;21.23;13.27;;;19.00;99.90;;;;;;4959696;28;20122;-89
2021/07/08 08:21:57;;;;;;;25.42;14.65;;;19.00;99.90;;;;;;4975735;28;20553;-89
2021/07/08 08:24:22;;;;;;;23.20;14.75;;;19.00;99.90;;;;;;4975614;28;20042;-89
2021/07/08 08:26:51;;;;;;;28.55;13.90;;;19.00;99.90;;;;;;4975874;28;20050;-90
2021/07/08 08:29:20;;;;;;;20.73;13.70;;;19.10;99.90;;;;;;4975916;28;20077;-90
2021/07/08 08:31:46;;;;;;;19.30;12.93;;;19.20;99.90;;;;;;4958907;28;20042;-88
2021/07/08 08:34:12;;;;;;;19.73;14.02;;;19.20;99.90;;;;;;4974363;28;20130;-88
2021/07/08 08:36:38;;;;;;;20.67;13.80;;;19.30;99.90;;;;;;4975369;28;20375;-88
2021/07/08 08:39:04;;;;;;;28.33;13.38;;;19.40;99.90;;;;;;4985979;28;20072;-90
2021/07/08 08:41:34;;;;;;;22.83;13.65;;;19.50;99.90;;;;;;5009491;28;20130;-90
2021/07/08 08:44:00;;;;;;;24.55;13.05;;;19.50;99.90;;;;;;4959164;28;20129;-90
2021/07/08 08:46:26;;;;;;;18.88;12.00;;;19.60;99.90;;;;;;4993000;28;20034;-90
2021/07/08 08:48:52;;;;;;;16.38;11.15;;;19.60;99.90;;;;;;4959607;28;20379;-92
2021/07/08 08:51:18;;;;;;;17.70;11.65;;;19.70;99.90;;;;;;4975581;28;20066;-91
2021/07/08 08:53:44;;;;;;;25.70;11.82;;;19.80;99.90;;;;;;4944361;28;20054;-92
2021/07/08 08:56:10;;;;;;;20.60;12.45;;;19.80;99.90;;;;;;4948813;28;20047;-88
2021/07/08 08:58:36;;;;;;;18.02;11.98;;;19.90;99.90;;;;;;4964026;28;20042;-88
2021/07/08 09:01:05;;;;;;;21.55;12.65;;;19.90;99.90;;;;;;4960849;28;20044;-89
2021/07/08 09:03:34;;;;;;;19.85;12.88;;;19.90;99.90;;;;;;4973767;28;20093;-90
2021/07/08 09:06:05;;;;;;;18.95;12.77;;;20.00;99.90;;;;;;4945490;28;20079;-90
2021/07/08 09:08:31;;;;;;;17.13;12.13;;;20.10;99.90;;;;;;4959494;28;20066;-91
2021/07/08 09:11:19;;;;;;;15.75;9.48;;;20.10;99.90;;;;;;4956484;28;20038;-90
2021/07/08 09:13:47;;;;;;;10.60;8.30;;;20.00;99.90;;;;;;4972861;28;20047;-89
2021/07/08 09:16:14;;;;;;;12.40;8.20;;;20.10;99.90;;;;;;4968577;28;20049;-90
2021/07/08 09:18:43;;;;;;;17.80;11.10;;;20.10;99.90;;;;;;4956532;28;20062;-90
2021/07/08 09:21:21;;;;;;;15.30;9.88;;;20.10;99.90;;;;;;4955471;28;20073;-90
2021/07/08 09:24:05;;;;;;;21.13;9.80;;;20.10;99.90;;;;;;4973719;28;20053;-89
2021/07/08 09:26:31;;;;;;;13.35;9.30;;;20.20;99.90;;;;;;4959522;28;20126;-89
2021/07/08 09:29:03;;;;;;;14.63;9.95;;;20.20;99.90;;;;;;4940015;28;20074;-93
2021/07/08 09:31:29;;;;;;;19.40;9.35;;;20.20;99.90;;;;;;4969596;28;20054;-90
2021/07/08 09:33:54;;;;;;;13.50;8.60;;;20.40;99.90;;;;;;4956179;28;20051;-92
2021/07/08 09:36:20;;;;;;;17.25;7.35;;;20.50;99.90;;;;;;4942171;28;20046;-90
2021/07/08 09:38:48;;;;;;;10.93;6.60;;;20.60;99.90;;;;;;4956433;28;20094;-90
2021/07/08 09:41:25;;;;;;;14.48;7.38;;;20.70;99.90;;;;;;4953415;28;20292;-89
2021/07/08 09:43:52;;;;;;;16.48;7.20;;;20.80;99.90;;;;;;4954490;28;20043;-91
2021/07/08 09:46:33;;;;;;;12.52;6.57;;;20.90;99.90;;;;;;4954908;28;20130;-89
2021/07/08 09:49:14;;;;;;;14.60;7.13;;;21.10;99.90;;;;;;4974034;28;20491;-90
2021/07/08 09:51:41;;;;;;;11.70;6.65;;;21.20;99.90;;;;;;4958758;28;20399;-89
2021/07/08 09:54:12;;;;;;;8.73;5.60;;;21.30;99.90;;;;;;4971640;28;20093;-91
2021/07/08 09:56:44;;;;;;;9.63;5.82;;;21.40;99.90;;;;;;4955791;28;20053;-90
2021/07/08 09:59:11;;;;;;;12.27;5.45;;;21.40;99.90;;;;;;4972811;28;20050;-88
2021/07/08 10:01:37;;;;;;;8.07;5.45;;;21.40;99.90;;;;;;4955657;28;20046;-89
2021/07/08 10:04:03;;;;;;;8.45;5.07;;;21.30;99.90;;;;;;4953886;28;20055;-88
2021/07/08 10:06:31;;;;;;;10.65;5.25;;;21.20;99.90;;;;;;4965596;28;20043;-89
2021/07/08 10:08:58;;;;;;;7.82;4.63;;;21.20;99.90;;;;;;4972632;28;20051;-89
2021/07/08 10:11:25;;;;;;;8.18;4.25;;;21.30;99.90;;;;;;4971707;28;20047;-89
2021/07/08 10:13:51;;;;;;;8.60;4.68;;;21.60;99.90;;;;;;4971713;28;20078;-88
2021/07/08 10:16:17;;;;;;;6.13;3.70;;;21.80;99.90;;;;;;4970789;28;20053;-88
2021/07/08 10:18:45;;;;;;;8.55;4.70;;;21.80;99.90;;;;;;4955532;28;20051;-89
2021/07/08 10:21:12;;;;;;;10.15;4.70;;;21.90;99.90;;;;;;4970549;28;20042;-90
2021/07/08 10:23:40;;;;;;;10.35;4.90;;;21.80;99.90;;;;;;4965408;28;20066;-89
2021/07/08 10:26:07;;;;;;;18.48;5.95;;;21.60;99.90;;;;;;4966461;28;20678;-91
2021/07/08 10:28:38;;;;;;;14.77;4.82;;;21.50;99.90;;;;;;4955010;28;20049;-88
2021/07/08 10:31:06;;;;;;;10.60;5.07;;;21.40;99.90;;;;;;4973239;28;20094;-89
2021/07/08 10:33:31;;;;;;;11.07;4.28;;;21.30;99.90;;;;;;4973924;28;20390;-93
2021/07/08 10:35:58;;;;;;;8.75;4.60;;;21.40;99.90;;;;;;4970755;28;20054;-91
2021/07/08 10:38:31;;;;;;;7.55;4.47;;;21.50;99.90;;;;;;4956425;28;20053;-90
2021/07/08 10:41:00;;;;;;;7.20;3.95;;;21.70;99.90;;;;;;4974441;28;20039;-92
2021/07/08 10:43:37;;;;;;;10.30;3.70;;;21.70;99.90;;;;;;4971023;28;20043;-94
2021/07/08 10:46:07;;;;;;;9.55;4.43;;;21.60;99.90;;;;;;4972213;28;20051;-93
2021/07/08 10:48:45;;;;;;;18.75;6.28;;;21.60;99.90;;;;;;4971090;28;20043;-93
2021/07/08 10:51:33;;;;;;;7.93;3.60;;;21.50;99.90;;;;;;4983120;28;20047;-92
2021/07/08 10:54:28;;;;;;;8.05;3.47;;;21.40;99.90;;;;;;4979501;28;20185;-90
2021/07/08 10:56:56;;;;;;;6.97;3.55;;;21.20;99.90;;;;;;4969993;28;20039;-93
2021/07/08 10:59:38;;;;;;;7.38;3.03;;;21.10;99.90;;;;;;4975642;28;20042;-91
2021/07/08 11:02:04;;;;;;;7.28;3.30;;;21.10;99.90;;;;;;4976424;28;20034;-94
2021/07/08 11:04:50;;;;;;;6.30;3.03;;;21.20;99.90;;;;;;4988781;28;20475;-92
2021/07/08 11:07:21;;;;;;;8.32;3.08;;;21.40;99.90;;;;;;4974259;28;20047;-91
2021/07/08 11:10:02;;;;;;;10.50;3.58;;;21.60;99.90;;;;;;4975025;28;20085;-91
2021/07/08 11:12:31;;;;;;;8.88;3.55;;;21.70;99.90;;;;;;4971769;28;20045;-93
2021/07/08 11:14:58;;;;;;;7.55;3.25;;;21.80;99.90;;;;;;4974599;28;20113;-93
2021/07/08 11:17:24;;;;;;;12.57;3.15;;;21.80;99.90;;;;;;4958948;28;20046;-92
2021/07/08 11:19:52;;;;;;;9.68;4.03;;;21.90;99.90;;;;;;4959319;28;20465;-92
2021/07/08 11:22:21;;;;;;;6.30;2.70;;;22.00;99.90;;;;;;4974597;28;20042;-93
2021/07/08 11:24:52;;;;;;;6.77;3.03;;;22.10;99.90;;;;;;4974311;28;20065;-92
2021/07/08 11:27:21;;;;;;;9.45;3.00;;;22.00;99.90;;;;;;4986415;28;20258;-92
2021/07/08 11:29:51;;;;;;;9.93;3.07;;;21.90;99.90;;;;;;4975703;28;20046;-93
2021/07/08 11:32:17;;;;;;;10.32;3.13;;;21.80;99.90;;;;;;4973966;28;20293;-94
2021/07/08 11:34:57;;;;;;;6.93;3.30;;;21.70;99.90;;;;;;4991018;28;20796;-93
2021/07/08 11:37:31;;;;;;;4.43;2.83;;;21.60;99.90;;;;;;4975783;28;20053;-92
2021/07/08 11:39:59;;;;;;;17.65;3.25;;;21.50;99.90;;;;;;4984297;28;20058;-92
2021/07/08 11:42:34;;;;;;;7.00;3.00;;;21.50;99.90;;;;;;4981526;28;20043;-91
2021/07/08 11:45:03;;;;;;;11.50;2.72;;;21.50;99.90;;;;;;4958195;28;20050;-93
2021/07/08 11:47:42;;;;;;;5.45;2.60;;;21.70;99.90;;;;;;4989276;28;20046;-91
2021/07/08 11:50:32;;;;;;;5.63;3.13;;;21.80;99.90;;;;;;4972851;28;20122;-96
2021/07/08 11:53:18;;;;;;;6.93;2.60;;;22.10;99.90;;;;;;4974102;28;20054;-92
2021/07/08 11:55:58;;;;;;;4.88;2.58;;;22.30;99.90;;;;;;4993946;28;20047;-93
2021/07/08 11:58:34;;;;;;;6.28;2.45;;;22.30;99.90;;;;;;4978102;28;20054;-93
2021/07/08 12:01:05;;;;;;;6.60;2.72;;;22.30;99.90;;;;;;4960770;28;20081;-91
2021/07/08 12:03:40;;;;;;;9.55;3.00;;;22.20;99.90;;;;;;4990383;28;20556;-92
2021/07/08 12:06:10;;;;;;;5.53;2.40;;;22.30;99.90;;;;;;4994669;28;20170;-92
2021/07/08 12:08:43;;;;;;;7.88;2.40;;;22.30;99.90;;;;;;4977189;28;20096;-92
2021/07/08 12:11:17;;;;;;;10.82;3.67;;;22.30;99.90;;;;;;4977887;28;20073;-95
2021/07/08 12:14:04;;;;;;;6.47;2.42;;;22.20;99.90;;;;;;4977808;28;20081;-90
2021/07/08 12:16:33;;;;;;;8.65;2.60;;;22.10;99.90;;;;;;4982892;28;20470;-91
2021/07/08 12:19:07;;;;;;;4.05;2.25;;;22.00;99.90;;;;;;4978551;28;20170;-93
2021/07/08 12:21:38;;;;;;;8.52;3.35;;;21.90;99.90;;;;;;4982383;28;20121;-92
2021/07/08 12:24:20;;;;;;;8.63;2.90;;;21.70;99.90;;;;;;4995651;28;20043;-92
2021/07/08 12:26:46;;;;;;;9.90;2.58;;;21.60;99.90;;;;;;4983957;28;20160;-93
2021/07/08 12:29:25;;;;;;;12.02;3.55;;;21.50;99.90;;;;;;4988972;28;20482;-93
2021/07/08 12:31:52;;;;;;;5.93;3.20;;;21.40;99.90;;;;;;4972369;28;20043;-91
2021/07/08 12:34:24;;;;;;;7.88;2.97;;;21.30;99.90;;;;;;4983230;28;20302;-90
2021/07/08 12:36:50;;;;;;;10.18;3.00;;;21.30;99.90;;;;;;4992287;28;20031;-92
2021/07/08 12:39:22;;;;;;;9.55;3.25;;;21.30;99.90;;;;;;4969387;28;20058;-94
2021/07/08 12:41:48;;;;;;;7.65;3.28;;;21.50;99.90;;;;;;4987464;28;20035;-92